Terminal Aerodrome Forecast
Issued by NWS

Home | Current Version | Previous Version | Text Only | Print | Product List | Glossary On
Versions: 1 2 3 4 5 6 7 8 9 10 11 12 13 14 15 16 17 18 19 20 21 22 23
000
FTUS41 KCAR 311300 AAC
TAFPQI
TAF AMD
KPQI 311356Z 3114/0112 VRB02KT P6SM SCT005 OVC020
     FM311430 VRB03KT P6SM SCT018 BKN035
     FM312100 19006KT P6SM -SHRA VCTS SCT030CB BKN045 OVC100
     FM312300 VRB15G30KT 2SM TSRA BR OVC025CB
     FM010100 20004KT 4SM SHRA BR VCTS OVC018CB
     FM010200 20004KT 6SM -SHRA OVC025
     FM010400 VRB03KT P6SM VCSH OVC035
     FM010700 VRB03KT 5SM BR BKN012 OVC025
      AMD LTD TO CLD VIS AND WIND=

USA.gov is the U.S. government's official web portal to all federal, state and local government web resources and services.